• Join FlightAware (Why Join?)
  • Login
  • US Flag 
09:39AM EDT


 

Airport Tracker/Info


-or-


 

Live Flight TrackerFlight Track Log ✈ N2317S ✈ 03-Oct-2013 ✈ KHFD - KBTV

Flight Track Log - Related Links

Times and Time Zones

All times are in EDT time to prevent confusion due to time zone crossing. See the N2317S flight status page for this flight to view local times or setup timezone preferences in your user account.

Time Position Orientation Groundspeed Altitude Reporting Facility
EDT Latitude Longitude Course Direction KTS MPH feet Rate Location/Type
08:57AM 41.7458 -72.6544 360° North 81 93 400  Level Boston Center
08:57AM 41.7519 -72.6544 360° North 90 104 700 780 Climbing Boston Center
08:58AM 41.7686 -72.6850 306° West 120 138 1,400 600 Climbing Boston Center
08:59AM 41.7728 -72.7294 277° West 132 152 2,000 660 Climbing Boston Center
09:00AM 41.7706 -72.7742 266° West 125 144 2,700 780 Climbing Boston Center
09:01AM 41.7911 -72.8106 307° West 110 127 3,600 720 Climbing Boston Center
09:02AM 41.8183 -72.8328 329° Northwest 115 132 4,300 720 Climbing Boston Center
09:03AM 41.8453 -72.8553 328° Northwest 121 139 5,100 780 Climbing Boston Center
09:04AM 41.8722 -72.8806 325° Northwest 119 137 5,800 720 Climbing Boston Center
09:05AM 41.9014 -72.8892 348° North 121 139 6,500 720 Climbing Boston Center
09:06AM 41.9367 -72.8978 350° North 118 136 7,300 720 Climbing Boston Center
09:07AM 41.9700 -72.9008 356° North 122 140 8,000 300 Climbing Boston Center
09:08AM 42.0097 -72.9067 354° North 156 180 8,000  Level Boston Center
09:09AM 42.0556 -72.9156 352° North 175 201 8,000  Level Boston Center
09:10AM 42.1014 -72.9242 352° North 166 191 8,000  Level Boston Center
09:12AM 42.1514 -72.9303 355° North 159 183 8,000  Level Boston Center
09:13AM 42.2014 -72.9361 355° North 157 181 8,000  Level Boston Center
09:14AM 42.2472 -72.9450 352° North 159 183 8,000  Level Boston Center
09:14AM 42.2764 -72.9508 352° North 159 183 8,000  Level Boston Center
09:15AM 42.3242 -72.9708 343° North 152 175 8,000  Level Boston Center
09:16AM 42.3636 -72.9936 337° Northwest 151 174 8,000  Level Boston Center
09:18AM 42.4011 -73.0136 339° North 152 175 8,000  Level Boston Center
09:19AM 42.4425 -73.0394 335° Northwest 154 177 8,000  Level Boston Center
09:20AM 42.4861 -73.0622 339° North 156 180 8,000  Level Boston Center
09:21AM 42.5278 -73.0825 340° North 156 180 8,000  Level Boston Center
09:22AM 42.5672 -73.1053 337° Northwest 154 177 8,000  Level Boston Center
09:23AM 42.6047 -73.1311 333° Northwest 154 177 8,000  Level Boston Center
09:24AM 42.6483 -73.1514 341° North 153 176 8,000  Level Boston Center
09:25AM 42.6919 -73.1744 339° North 153 176 8,000  Level Boston Center
09:26AM 42.7314 -73.2003 334° Northwest 152 175 8,000  Level Boston Center
09:27AM 42.7686 -73.2206 338° Northwest 152 175 8,000  Level Boston Center
09:28AM 42.8081 -73.2411 339° North 153 176 8,000  Level Boston Center
09:29AM 42.8539 -73.2669 338° Northwest 152 175 8,000  Level Boston Center
09:30AM 42.8933 -73.2903 337° Northwest 150 173 8,000  Level Boston Center
09:31AM 42.9347 -73.3108 340° North 151 174 8,000  Level Boston Center
09:32AM 42.9722 -73.3339 336° Northwest 152 175 8,000  Level Boston Center
09:33AM 43.0117 -73.3458 348° North 157 181 8,000  Level Boston Center
09:34AM 43.0575 -73.3436 North 163 188 8,000  Level Boston Center
09:35AM 43.1200 -73.3361 North 173 199 8,000  Level Boston Center
09:36AM 43.1597 -73.3367 359° North 173 199 8,000  Level Boston Center
09:37AM 43.2075 -73.3344 North 165 190 8,000  Level Boston Center
09:38AM 43.2492 -73.3322 North 160 184 8,000  Level Boston Center
09:39AM 43.2994 -73.3303 North 160 184 8,000  Level Boston Center
09:40AM 43.3389 -73.3278 North 160 184 8,000  Level Boston Center
09:41AM 43.3889 -73.3258 North 160 184 8,000  Level Boston Center
09:42AM 43.4369 -73.3236 North 160 184 8,000  Level Boston Center
09:43AM 43.4806 -73.3242 359° North 160 184 8,000  Level Boston Center
09:44AM 43.5244 -73.3192 North 160 184 8,000  Level Boston Center
09:45AM 43.5661 -73.3169 North 160 184 8,000  Level Boston Center
09:46AM 43.6119 -73.3175 359° North 160 184 8,000  Level Boston Center
09:47AM 43.6558 -73.3153 North 160 184 8,000  Level Boston Center
09:48AM 43.6994 -73.3131 North 160 184 8,000  Level Boston Center
09:49AM 43.7433 -73.3050 North 160 184 8,000  Level Boston Center
09:50AM 43.7894 -73.2942 10° North 160 184 8,000  Level Boston Center
09:51AM 43.8289 -73.2892 North 160 184 8,000  Level Boston Center
09:52AM 43.8728 -73.2781 10° North 160 184 8,000  Level Boston Center
09:53AM 43.9186 -73.2703 North 160 184 8,000  Level Boston Center
09:54AM 43.9625 -73.2622 North 160 184 8,000 -60 Level Boston Center
09:55AM 44.0064 -73.2569 North 160 184 7,900 -360 Descending Boston Center
09:56AM 44.0542 -73.2461 North 160 184 7,300 -540 Descending Boston Center
09:57AM 44.0981 -73.2381 North 160 184 6,900 -480 Descending Boston Center
09:58AM 44.1503 -73.2444 355° North 160 184 6,400 -600 Descending Boston Center
09:59AM 44.1958 -73.2536 352° North 160 184 5,800 -660 Descending Boston Center
10:00AM 44.2397 -73.2631 351° North 165 190 5,100 -720 Descending Boston Center
10:01AM 44.2856 -73.2636 360° North 158 182 4,400 -780 Descending Boston Center
10:03AM 44.3284 -73.2383 12° North  Level Estimated
10:10AM 44.4667 -73.1500 10° North  Level FlightAware Approximate
10:11AM 44.4719 -73.1533 10° North  Level Estimated
10:12AM 44.4667 -73.1500 10° North  Level FlightAware Approximate
10:13AM 44.4719 -73.1533 10° North  Level Estimated
10:14AM 44.4667 -73.1500 10° North  Level FlightAware Approximate
10:15AM 44.4719 -73.1533 10° North  Level Estimated
10:16AM 44.4667 -73.1500 10° North  Level FlightAware Approximate
10:17AM 44.4719 -73.1533 10° North  Level Estimated